Terminal Aerodrome Forecast
Issued by NWS

Home | Current Version | Previous Version | Text Only | Print | Product List | Glossary On
Versions: 1 2 3 4 5 6 7 8 9 10 11 12
000
FTPA31 PHFO 301700
TAFKOA
TAF
PHKO 301721Z 3018/3118 07005KT P6SM SCT080
     FM302000 24007KT P6SM SCT060
     FM310200 20007KT P6SM FEW025 OVC050
     FM310600 15006KT P6SM FEW025 OVC050=

USA.gov is the U.S. government's official web portal to all federal, state and local government web resources and services.